createdAt,value
2022-10-06T00:00:32.128Z,100
2022-10-06T00:01:32.417Z,100
2022-10-06T00:02:35.185Z,100
2022-10-06T00:03:33.060Z,100
2022-10-06T00:04:33.501Z,100
2022-10-06T00:05:33.901Z,100
2022-10-06T00:06:34.403Z,100
2022-10-06T00:07:35.764Z,100
2022-10-06T00:08:37.689Z,100
2022-10-06T00:09:35.668Z,100
2022-10-06T00:10:36.088Z,100
2022-10-06T00:11:36.571Z,100
2022-10-06T00:12:44.700Z,100
2022-10-06T00:13:42.972Z,100
2022-10-06T00:14:42.488Z,100
2022-10-06T00:15:42.809Z,100
2022-10-06T00:16:43.290Z,100
2022-10-06T00:17:43.610Z,100
2022-10-06T00:18:44.953Z,100
2022-10-06T00:19:44.759Z,100
2022-10-06T00:20:44.962Z,100
2022-10-06T00:21:45.876Z,100
2022-10-06T00:22:48.560Z,100
2022-10-06T00:23:46.509Z,100
2022-10-06T00:24:46.735Z,100
2022-10-06T00:25:47.454Z,100
2022-10-06T00:26:47.560Z,100
2022-10-06T00:27:51.044Z,100
2022-10-06T00:28:49.172Z,100
2022-10-06T00:29:48.907Z,100
2022-10-06T00:30:49.500Z,100
2022-10-06T00:31:49.950Z,100
2022-10-06T00:33:54.251Z,100
2022-10-06T00:34:54.583Z,100
2022-10-06T00:35:59.299Z,100
2022-10-06T00:36:56.700Z,100
2022-10-06T00:37:57.153Z,100
2022-10-06T00:38:57.690Z,100
2022-10-06T00:39:58.186Z,100
2022-10-06T00:40:58.603Z,100
2022-10-06T00:41:59.013Z,100
2022-10-06T00:43:05.499Z,100
2022-10-06T00:44:03.038Z,100
2022-10-06T00:45:06.207Z,100
2022-10-06T00:46:04.347Z,100
2022-10-06T00:47:04.592Z,100
2022-10-06T00:50:12.703Z,100
2022-10-06T00:51:12.390Z,100
2022-10-06T00:52:16.700Z,100
2022-10-06T00:53:15.391Z,100
2022-10-06T00:54:15.284Z,100
2022-10-06T00:55:15.493Z,100
2022-10-06T00:56:15.621Z,100
2022-10-06T00:57:16.416Z,100
2022-10-06T00:58:17.153Z,100
2022-10-06T00:59:19.518Z,100
2022-10-06T01:00:18.606Z,100
2022-10-06T01:01:18.136Z,100
2022-10-06T01:02:31.993Z,100
2022-10-06T01:03:24.553Z,100
2022-10-06T01:04:24.453Z,100
2022-10-06T01:06:26.913Z,100
2022-10-06T01:07:29.505Z,100
2022-10-06T01:08:29.331Z,100
2022-10-06T01:09:29.614Z,100
2022-10-06T01:10:29.210Z,100
2022-10-06T01:11:29.323Z,100
2022-10-06T01:12:31.583Z,100
2022-10-06T01:13:30.871Z,100
2022-10-06T01:14:31.176Z,100
2022-10-06T01:15:31.178Z,100
2022-10-06T01:18:39.595Z,100
2022-10-06T01:22:50.483Z,100
2022-10-06T01:23:48.235Z,100
2022-10-06T01:24:49.473Z,100
2022-10-06T01:25:49.384Z,100
2022-10-06T01:26:51.920Z,100
2022-10-06T01:27:51.643Z,100
2022-10-06T01:28:50.566Z,100
2022-10-06T01:30:54.758Z,100
2022-10-06T01:31:53.307Z,100
2022-10-06T01:32:53.931Z,100
2022-10-06T01:33:55.072Z,100
2022-10-06T01:34:54.560Z,100
2022-10-06T01:35:54.981Z,100
2022-10-06T01:36:55.688Z,100
2022-10-06T01:37:56.009Z,100
2022-10-06T01:38:56.289Z,100
2022-10-06T01:39:57.363Z,100
2022-10-06T01:40:57.776Z,100
2022-10-06T01:41:58.282Z,100
2022-10-06T01:42:58.713Z,100
2022-10-06T01:43:59.122Z,100
2022-10-06T01:44:59.705Z,100
2022-10-06T01:46:00.092Z,100
2022-10-06T01:47:00.371Z,100
2022-10-06T01:48:00.995Z,100
2022-10-06T01:49:01.202Z,100
2022-10-06T01:50:02.030Z,100
2022-10-06T01:51:02.042Z,100
2022-10-06T01:52:03.381Z,100
2022-10-06T01:53:03.081Z,100
2022-10-06T01:54:03.690Z,100
2022-10-06T01:55:04.830Z,100
2022-10-06T01:56:04.411Z,100
2022-10-06T01:57:08.319Z,100
2022-10-06T01:58:05.861Z,100
2022-10-06T01:59:06.184Z,100
2022-10-06T02:00:08.141Z,100
2022-10-06T02:01:08.873Z,100
2022-10-06T02:02:07.529Z,100
2022-10-06T02:03:08.020Z,100
2022-10-06T02:04:08.413Z,100
2022-10-06T02:05:09.603Z,100
2022-10-06T02:06:09.909Z,100
2022-10-06T02:07:09.733Z,100
2022-10-06T02:08:10.340Z,100
2022-10-06T02:09:10.751Z,100
2022-10-06T02:10:10.855Z,100
2022-10-06T02:11:12.503Z,100
2022-10-06T02:12:11.701Z,100
2022-10-06T02:13:12.208Z,100
2022-10-06T02:14:12.741Z,100
2022-10-06T02:15:13.157Z,100
2022-10-06T02:16:13.629Z,100
2022-10-06T02:17:13.981Z,100
2022-10-06T02:18:14.514Z,100
2022-10-06T02:19:14.821Z,100
2022-10-06T02:20:15.752Z,100
2022-10-06T02:22:17.600Z,100
2022-10-06T02:23:17.813Z,100
2022-10-06T02:24:18.120Z,100
2022-10-06T02:25:18.752Z,100
2022-10-06T02:26:19.006Z,100
2022-10-06T02:27:19.273Z,100
2022-10-06T02:28:19.882Z,100
2022-10-06T02:29:20.421Z,100
2022-10-06T02:30:20.931Z,100
2022-10-06T02:31:21.312Z,100
2022-10-06T02:32:21.670Z,100
2022-10-06T02:33:21.865Z,100
2022-10-06T02:34:22.602Z,100
2022-10-06T02:35:23.012Z,100
2022-10-06T02:36:23.221Z,100
2022-10-06T02:37:23.741Z,100
2022-10-06T02:38:25.360Z,100
2022-10-06T02:39:24.571Z,100
2022-10-06T02:40:25.086Z,100
2022-10-06T02:41:25.711Z,100
2022-10-06T02:42:26.126Z,100
2022-10-06T02:43:26.548Z,100
2022-10-06T02:44:26.758Z,100
2022-10-06T02:45:27.080Z,100
2022-10-06T02:46:27.935Z,100
2022-10-06T02:47:28.019Z,100
2022-10-06T02:48:29.793Z,100
2022-10-06T02:49:28.845Z,100
2022-10-06T02:50:29.358Z,100
2022-10-06T02:51:29.980Z,100
2022-10-06T02:53:34.809Z,100
2022-10-06T02:54:34.503Z,100
2022-10-06T02:55:35.854Z,100
2022-10-06T02:56:35.245Z,100
2022-10-06T02:57:35.630Z,100
2022-10-06T02:58:36.677Z,100
2022-10-06T02:59:36.777Z,100
2022-10-06T03:00:37.001Z,100
2022-10-06T03:01:37.506Z,100
2022-10-06T03:02:38.111Z,100
2022-10-06T03:03:38.863Z,100
2022-10-06T03:04:38.972Z,100
2022-10-06T03:05:39.380Z,100
2022-10-06T03:06:39.592Z,100
2022-10-06T03:07:39.909Z,100
2022-10-06T03:08:40.319Z,100
2022-10-06T03:09:41.120Z,100
2022-10-06T03:10:41.270Z,100
2022-10-06T03:11:43.019Z,100
2022-10-06T03:12:42.293Z,100
2022-10-06T03:13:42.521Z,100
2022-10-06T03:14:43.640Z,100
2022-10-06T03:15:44.103Z,100
2022-10-06T03:16:44.468Z,100
2022-10-06T03:17:48.862Z,100
2022-10-06T03:18:47.347Z,100
2022-10-06T03:19:46.750Z,100
2022-10-06T03:20:47.280Z,100
2022-10-06T03:21:47.880Z,100
2022-10-06T03:22:48.200Z,100
2022-10-06T03:23:50.462Z,100
2022-10-06T03:24:48.927Z,100
2022-10-06T03:26:52.929Z,100
2022-10-06T03:27:53.453Z,100
2022-10-06T03:28:54.901Z,100
2022-10-06T03:29:54.411Z,100
2022-10-06T03:30:54.713Z,100
2022-10-06T03:31:55.230Z,100
2022-10-06T03:32:55.550Z,100
2022-10-06T03:33:56.364Z,100
2022-10-06T03:34:56.487Z,100
2022-10-06T03:37:00.802Z,100
2022-10-06T03:38:01.096Z,100
2022-10-06T03:39:03.152Z,100
2022-10-06T03:40:01.932Z,100
2022-10-06T03:41:07.064Z,100
2022-10-06T03:42:04.521Z,100
2022-10-06T03:43:04.824Z,100
2022-10-06T03:44:05.440Z,100
2022-10-06T03:45:06.470Z,100
2022-10-06T03:46:07.315Z,100
2022-10-06T03:47:06.861Z,100
2022-10-06T03:48:06.858Z,100
2022-10-06T03:49:07.626Z,100
2022-10-06T03:50:08.552Z,100
2022-10-06T03:51:12.138Z,100
2022-10-06T03:52:09.491Z,100
2022-10-06T03:53:10.022Z,100
2022-10-06T03:54:10.702Z,100
2022-10-06T03:55:10.930Z,100
2022-10-06T03:56:14.430Z,100
2022-10-06T03:57:12.591Z,100
2022-10-06T03:58:17.322Z,100
2022-10-06T03:59:15.096Z,100
2022-10-06T04:00:15.372Z,100
2022-10-06T04:01:25.926Z,100
2022-10-06T04:02:19.237Z,100
2022-10-06T04:03:22.251Z,100
2022-10-06T04:04:19.902Z,100
2022-10-06T04:05:20.223Z,100
2022-10-06T04:06:21.046Z,100
2022-10-06T04:07:21.268Z,100
2022-10-06T04:08:21.785Z,100
2022-10-06T04:09:22.500Z,100
2022-10-06T04:10:22.613Z,100
2022-10-06T04:11:25.579Z,100
2022-10-06T04:12:24.048Z,100
2022-10-06T04:13:24.277Z,100
2022-10-06T04:14:25.916Z,100
2022-10-06T04:15:25.306Z,100
2022-10-06T04:16:33.190Z,100
2022-10-06T04:17:30.541Z,100
2022-10-06T04:18:31.868Z,100
2022-10-06T04:19:31.586Z,100
2022-10-06T04:20:32.087Z,100
2022-10-06T04:21:34.781Z,100
2022-10-06T04:22:32.883Z,100
2022-10-06T04:23:33.764Z,100
2022-10-06T04:24:33.904Z,100
2022-10-06T04:25:34.749Z,100
2022-10-06T04:26:37.352Z,100
2022-10-06T04:27:34.912Z,100
2022-10-06T04:28:36.522Z,100
2022-10-06T04:29:35.744Z,100
2022-10-06T04:30:36.155Z,100
2022-10-06T04:31:38.783Z,100
2022-10-06T04:32:37.009Z,100
2022-10-06T04:33:37.721Z,100
2022-10-06T04:34:38.139Z,100
2022-10-06T04:35:38.568Z,100
2022-10-06T04:36:40.047Z,100
2022-10-06T04:37:39.163Z,100
2022-10-06T04:38:39.479Z,100
2022-10-06T04:39:40.007Z,100
2022-10-06T04:40:40.423Z,100
2022-10-06T04:41:42.191Z,100
2022-10-06T04:42:42.073Z,100
2022-10-06T04:43:42.496Z,100
2022-10-06T04:44:43.012Z,100
2022-10-06T04:45:43.136Z,100
2022-10-06T04:46:44.918Z,100
2022-10-06T04:47:44.147Z,100
2022-10-06T04:48:44.681Z,100
2022-10-06T04:49:44.879Z,100
2022-10-06T04:51:45.529Z,100
2022-10-06T04:52:45.815Z,100
2022-10-06T04:53:47.162Z,100
2022-10-06T04:54:46.755Z,100
2022-10-06T04:55:46.973Z,100
2022-10-06T04:56:47.714Z,100
2022-10-06T04:57:48.000Z,100
2022-10-06T04:58:50.669Z,100
2022-10-06T04:59:48.731Z,100
2022-10-06T05:00:49.434Z,100
2022-10-06T05:01:50.314Z,100
2022-10-06T05:02:51.009Z,100
2022-10-06T05:03:53.158Z,100
2022-10-06T05:04:51.435Z,100
2022-10-06T05:05:52.048Z,100
2022-10-06T05:06:52.238Z,100
2022-10-06T05:07:52.884Z,100
2022-10-06T05:09:56.896Z,100
2022-10-06T05:12:01.511Z,100
2022-10-06T05:13:01.831Z,100
2022-10-06T05:14:02.551Z,100
2022-10-06T05:15:02.967Z,100
2022-10-06T05:16:04.368Z,100
2022-10-06T05:17:03.384Z,100
2022-10-06T05:18:04.109Z,100
2022-10-06T05:19:04.215Z,100
2022-10-06T05:20:05.460Z,100
2022-10-06T05:22:09.271Z,100
2022-10-06T05:23:09.842Z,100
2022-10-06T05:24:10.512Z,100
2022-10-06T05:25:10.714Z,100
2022-10-06T05:26:13.274Z,100
2022-10-06T05:27:11.541Z,100
2022-10-06T05:28:12.019Z,100
2022-10-06T05:29:12.473Z,100
2022-10-06T05:30:13.002Z,100
2022-10-06T05:31:20.386Z,100
2022-10-06T05:32:17.820Z,100
2022-10-06T05:33:18.233Z,100
2022-10-06T05:34:18.761Z,100
2022-10-06T05:35:19.072Z,100
2022-10-06T05:36:24.926Z,100
2022-10-06T05:37:22.258Z,100
2022-10-06T05:38:23.470Z,100
2022-10-06T05:39:23.401Z,100
2022-10-06T05:40:23.821Z,100
2022-10-06T05:41:26.599Z,100
2022-10-06T05:42:29.383Z,100
2022-10-06T05:43:27.209Z,100
2022-10-06T05:44:27.730Z,100
2022-10-06T05:45:28.144Z,100
2022-10-06T05:46:32.562Z,100
2022-10-06T05:47:30.019Z,100
2022-10-06T05:48:31.414Z,100
2022-10-06T05:49:30.841Z,100
2022-10-06T05:50:31.355Z,100
2022-10-06T05:51:34.342Z,100
2022-10-06T05:52:32.803Z,100
2022-10-06T05:53:35.014Z,100
2022-10-06T05:54:33.425Z,100
2022-10-06T05:55:34.281Z,100
2022-10-06T05:56:37.339Z,100
2022-10-06T05:57:34.792Z,100
2022-10-06T05:58:37.245Z,100
2022-10-06T05:59:35.633Z,100
2022-10-06T06:00:36.340Z,100
2022-10-06T06:01:41.851Z,100
2022-10-06T06:02:39.500Z,100
2022-10-06T06:03:41.995Z,100
2022-10-06T06:04:40.240Z,100
2022-10-06T06:05:42.015Z,100
2022-10-06T06:06:47.851Z,100
2022-10-06T06:07:45.151Z,100
2022-10-06T06:08:46.834Z,100
2022-10-06T06:09:46.426Z,100
2022-10-06T06:10:46.547Z,100
2022-10-06T06:11:49.012Z,100
2022-10-06T06:12:47.263Z,100
2022-10-06T06:13:47.902Z,100
2022-10-06T06:14:48.213Z,100
2022-10-06T06:15:48.621Z,100
2022-10-06T06:16:49.120Z,100
2022-10-06T06:17:49.665Z,100
2022-10-06T06:18:50.277Z,100
2022-10-06T06:19:50.490Z,100
2022-10-06T06:21:52.135Z,100
2022-10-06T06:22:53.170Z,100
2022-10-06T06:23:52.773Z,100
2022-10-06T06:24:52.978Z,100
2022-10-06T06:26:04.871Z,100
2022-10-06T06:26:57.504Z,100
2022-10-06T06:27:57.856Z,100
2022-10-06T06:29:00.084Z,100
2022-10-06T06:29:59.064Z,100
2022-10-06T06:31:01.286Z,100
2022-10-06T06:31:59.884Z,100
2022-10-06T06:32:59.788Z,100
2022-10-06T06:34:01.536Z,100
2022-10-06T06:35:01.131Z,100
2022-10-06T06:36:01.245Z,100
2022-10-06T06:37:07.461Z,100
2022-10-06T06:38:09.032Z,100
2022-10-06T06:39:11.401Z,100
2022-10-06T06:40:09.365Z,100
2022-10-06T06:41:17.349Z,100
2022-10-06T06:42:09.786Z,100
2022-10-06T06:43:12.346Z,100
2022-10-06T06:44:10.917Z,100
2022-10-06T06:45:11.239Z,100
2022-10-06T06:46:12.643Z,100
2022-10-06T06:47:11.872Z,100
2022-10-06T06:48:15.870Z,100
2022-10-06T06:49:13.412Z,100
2022-10-06T06:50:14.021Z,100
2022-10-06T06:51:14.664Z,100
2022-10-06T06:52:14.761Z,100
2022-10-06T06:53:16.317Z,100
2022-10-06T06:54:16.631Z,100
2022-10-06T06:55:16.316Z,100
2022-10-06T06:56:17.360Z,100
2022-10-06T06:57:16.721Z,100
2022-10-06T06:58:18.803Z,100
2022-10-06T06:59:17.785Z,100
2022-10-06T07:00:18.269Z,100
2022-10-06T07:01:20.843Z,100
2022-10-06T07:02:19.095Z,100
2022-10-06T07:03:52.174Z,100
2022-10-06T07:04:24.161Z,100
2022-10-06T07:05:24.583Z,100
2022-10-06T07:06:28.056Z,100
2022-10-06T07:07:26.031Z,100
2022-10-06T07:08:27.091Z,100
2022-10-06T07:09:27.779Z,100
2022-10-06T07:10:28.038Z,100
2022-10-06T07:11:30.558Z,100
2022-10-06T07:12:28.830Z,100
2022-10-06T07:13:29.031Z,100
2022-10-06T07:14:29.549Z,100
2022-10-06T07:15:29.959Z,100
2022-10-06T07:16:31.613Z,100
2022-10-06T07:17:30.898Z,100
2022-10-06T07:18:31.909Z,100
2022-10-06T07:19:31.834Z,100
2022-10-06T07:20:32.150Z,100
2022-10-06T07:21:32.771Z,100
2022-10-06T07:22:33.901Z,100
2022-10-06T07:23:33.393Z,100
2022-10-06T07:24:33.914Z,100
2022-10-06T07:25:34.444Z,100
2022-10-06T07:26:34.954Z,100
2022-10-06T07:28:39.246Z,100
2022-10-06T07:29:39.593Z,100
2022-10-06T07:30:40.857Z,100
2022-10-06T07:31:40.359Z,100
2022-10-06T07:32:40.891Z,100
2022-10-06T07:33:41.220Z,100
2022-10-06T07:35:41.944Z,100
2022-10-06T07:36:42.596Z,100
2022-10-06T07:37:43.408Z,100
2022-10-06T07:38:43.325Z,100
2022-10-06T07:39:44.161Z,100
2022-10-06T07:40:50.635Z,100
2022-10-06T07:41:46.624Z,100
2022-10-06T07:42:46.935Z,100
2022-10-06T07:43:47.673Z,100
2022-10-06T07:44:48.177Z,100
2022-10-06T07:45:48.379Z,100
2022-10-06T07:46:49.026Z,100
2022-10-06T07:47:49.120Z,100
2022-10-06T07:48:49.636Z,100
2022-10-06T07:49:50.061Z,100
2022-10-06T07:50:52.322Z,100
2022-10-06T07:51:50.783Z,100
2022-10-06T07:52:51.202Z,100
2022-10-06T07:53:51.691Z,100
2022-10-06T07:54:52.519Z,100
2022-10-06T07:55:52.448Z,100
2022-10-06T07:56:54.093Z,100
2022-10-06T07:57:53.280Z,100
2022-10-06T07:58:54.022Z,100
2022-10-06T07:59:54.118Z,100
2022-10-06T08:00:54.751Z,100
2022-10-06T08:01:55.229Z,100
2022-10-06T08:02:55.580Z,100
2022-10-06T08:03:56.192Z,100
2022-10-06T08:04:56.916Z,100
2022-10-06T08:06:58.982Z,100
2022-10-06T08:07:59.601Z,100
2022-10-06T08:08:59.823Z,100
2022-10-06T08:10:00.438Z,100
2022-10-06T08:11:01.936Z,100
2022-10-06T08:12:01.373Z,100
2022-10-06T08:13:05.384Z,100
2022-10-06T08:14:02.912Z,100
2022-10-06T08:16:07.308Z,100
2022-10-06T08:17:06.003Z,100
2022-10-06T08:18:21.427Z,100
2022-10-06T08:19:09.124Z,100
2022-10-06T08:20:11.857Z,100
2022-10-06T08:22:13.308Z,100
2022-10-06T08:23:14.030Z,100
2022-10-06T08:24:14.144Z,100
2022-10-06T08:25:15.174Z,100
2022-10-06T08:26:16.411Z,100
2022-10-06T08:27:15.613Z,100
2022-10-06T08:28:15.832Z,99.89
2022-10-06T08:29:16.318Z,99.87
2022-10-06T08:30:16.944Z,99.73
2022-10-06T08:31:19.193Z,99.56
2022-10-06T08:32:17.582Z,99.58
2022-10-06T08:33:21.180Z,99.75
2022-10-06T08:34:19.113Z,99.73
2022-10-06T08:35:19.450Z,99.66
2022-10-06T08:36:20.333Z,99.42
2022-10-06T08:37:20.724Z,99.34
2022-10-06T08:38:20.676Z,99.47
2022-10-06T08:39:21.300Z,99.52
2022-10-06T08:40:21.930Z,99.42
2022-10-06T08:43:29.193Z,99.19
2022-10-06T08:46:40.398Z,99.22
2022-10-06T08:47:37.928Z,98.84
2022-10-06T08:48:38.157Z,98.85
2022-10-06T08:49:42.767Z,99.09
2022-10-06T08:58:58.184Z,98.04
2022-10-06T08:59:59.213Z,98.05
2022-10-06T09:01:58.181Z,97.78
2022-10-06T09:02:58.997Z,97.92
2022-10-06T09:05:04.576Z,97.64
2022-10-06T09:22:48.931Z,95.83
2022-10-06T09:25:51.978Z,95.39
2022-10-06T09:26:53.460Z,95.79
2022-10-06T09:27:56.118Z,95.83
2022-10-06T09:28:53.983Z,95.67
2022-10-06T09:29:54.480Z,95.39
2022-10-06T09:30:55.494Z,95.45
2022-10-06T09:31:54.933Z,95.83
2022-10-06T09:34:03.444Z,95.27
2022-10-06T09:34:58.323Z,95.1
2022-10-06T09:36:08.175Z,95.03
2022-10-06T09:37:08.992Z,95.4
2022-10-06T09:38:08.144Z,94.93
2022-10-06T09:39:06.451Z,94.94
2022-10-06T09:41:12.602Z,94.52
2022-10-06T09:48:24.998Z,94.73
2022-10-06T09:49:27.391Z,94.33
2022-10-06T09:50:27.301Z,94.37
2022-10-06T09:51:25.261Z,94.3
2022-10-06T09:52:25.881Z,94.03
2022-10-06T09:53:26.201Z,94.28
2022-10-06T09:54:27.023Z,95.18
2022-10-06T09:55:32.873Z,94.01
2022-10-06T09:56:32.579Z,93.71
2022-10-06T09:57:31.035Z,93.56
2022-10-06T09:58:32.861Z,93.61
2022-10-06T09:59:40.132Z,94.33
2022-10-06T10:01:34.653Z,93.06
2022-10-06T10:02:37.275Z,92.86
2022-10-06T10:04:41.316Z,92.28
2022-10-06T10:05:46.135Z,93.13
2022-10-06T10:06:43.903Z,92.08
2022-10-06T10:07:44.719Z,92.2
2022-10-06T10:08:44.515Z,91.91
2022-10-06T10:09:45.762Z,92.14
2022-10-06T10:10:45.961Z,92.14
2022-10-06T10:11:48.722Z,91.14
2022-10-06T10:13:52.749Z,92.03
2022-10-06T10:14:50.907Z,92.07
2022-10-06T10:15:53.952Z,91.57
2022-10-06T10:16:53.335Z,91.42
2022-10-06T10:17:54.650Z,91.54
2022-10-06T10:18:53.094Z,91.83
2022-10-06T10:19:54.600Z,92.36
2022-10-06T10:21:59.229Z,91.76
2022-10-06T10:27:23.456Z,91.83
2022-10-06T10:30:19.489Z,91.75
2022-10-06T10:38:41.754Z,91.53
2022-10-06T10:43:59.603Z,91.49
2022-10-06T10:45:02.571Z,91.52
2022-10-06T10:56:33.668Z,93.68
2022-10-06T10:57:39.836Z,93.86
2022-10-06T10:58:40.241Z,94.05
2022-10-06T11:02:45.281Z,95.7
2022-10-06T11:03:49.652Z,96.19
2022-10-06T11:34:14.175Z,96.15
2022-10-06T11:41:42.979Z,95.84
2022-10-06T11:43:52.313Z,95.62
2022-10-06T11:44:43.616Z,95.62
2022-10-06T11:48:52.655Z,96.06
2022-10-06T11:49:54.663Z,96.05
2022-10-06T11:50:54.403Z,96.18
2022-10-06T11:51:58.338Z,95.91
2022-10-06T11:52:57.283Z,95.65
2022-10-06T11:53:58.840Z,96.06
2022-10-06T12:04:24.570Z,95.93
2022-10-06T12:11:41.945Z,96.22
2022-10-06T12:12:42.871Z,96.4
2022-10-06T12:17:18.274Z,96.22
2022-10-06T12:35:38.004Z,92.75
2022-10-06T12:36:36.685Z,91.97
2022-10-06T12:37:43.142Z,91.57
2022-10-06T12:38:43.900Z,91.35
2022-10-06T12:39:41.611Z,91.43
2022-10-06T12:40:47.300Z,91.87
2022-10-06T12:42:48.817Z,92.03
2022-10-06T12:44:52.931Z,91.88
2022-10-06T12:47:01.941Z,91.75
2022-10-06T12:48:00.832Z,92.04
2022-10-06T12:53:23.590Z,92.01
2022-10-06T12:54:27.699Z,91.9
2022-10-06T12:57:25.061Z,92.23
2022-10-06T12:58:33.453Z,92.32
2022-10-06T12:59:30.916Z,92.47
2022-10-06T13:01:30.139Z,92.84
2022-10-06T13:02:30.806Z,92.83
2022-10-06T13:03:31.454Z,92.51
2022-10-06T13:04:33.960Z,92.24
2022-10-06T13:05:33.289Z,91.8
2022-10-06T13:06:32.478Z,92.04
2022-10-06T13:07:34.335Z,91.73
2022-10-06T13:08:36.392Z,91.69
2022-10-06T13:09:33.733Z,91.27
2022-10-06T13:10:34.515Z,91.5
2022-10-06T13:11:35.284Z,91.62
2022-10-06T13:12:39.390Z,91.53
2022-10-06T13:13:45.495Z,91.52
2022-10-06T13:14:37.954Z,91.37
2022-10-06T13:15:38.581Z,91.71
2022-10-06T13:16:42.628Z,92.23
2022-10-06T13:18:43.923Z,91.91
2022-10-06T13:19:45.065Z,91.73
2022-10-06T13:20:58.998Z,91.42
2022-10-06T13:21:47.118Z,91.07
2022-10-06T13:22:54.906Z,90.53
2022-10-06T13:23:48.366Z,90.79
2022-10-06T13:24:47.963Z,90.89
2022-10-06T13:25:59.441Z,91.06
2022-10-06T13:26:52.908Z,91.33
2022-10-06T13:27:52.582Z,91.38
2022-10-06T13:28:54.750Z,91.31
2022-10-06T13:31:55.900Z,91.86
2022-10-06T13:32:55.802Z,92.11
2022-10-06T13:34:58.035Z,92.26
2022-10-06T13:35:58.171Z,92.57
2022-10-06T13:36:59.726Z,92.9
2022-10-06T13:43:19.204Z,92.55
2022-10-06T13:45:19.120Z,92.34
2022-10-06T13:46:23.409Z,92.07
2022-10-06T13:47:24.046Z,92.57
2022-10-06T13:48:21.804Z,92.43
2022-10-06T13:50:22.849Z,91.97
2022-10-06T13:51:29.112Z,92.01
2022-10-06T13:52:34.929Z,92.42
2022-10-06T13:53:32.077Z,92.08
2022-10-06T13:55:31.576Z,91.67
2022-10-06T13:56:37.515Z,91.35
2022-10-06T13:58:36.403Z,91.31
2022-10-06T13:59:38.152Z,90.89
2022-10-06T14:01:38.732Z,91.69
2022-10-06T14:02:39.306Z,91.47
2022-10-06T14:03:39.793Z,92.02
2022-10-06T14:04:40.235Z,92.22
2022-10-06T14:07:48.554Z,91.21
2022-10-06T14:09:50.711Z,91.01
2022-10-06T14:12:54.516Z,89.88
2022-10-06T14:14:57.642Z,89.78
2022-10-06T14:16:02.926Z,89.84
2022-10-06T14:17:00.884Z,89.96
2022-10-06T14:18:03.169Z,90.24
2022-10-06T14:19:04.389Z,90.2
2022-10-06T14:20:02.378Z,90.45
2022-10-06T14:22:06.435Z,90.53
2022-10-06T14:27:12.134Z,89.28
2022-10-06T14:28:12.648Z,90.37
2022-10-06T14:30:15.008Z,87.21
2022-10-06T14:31:15.896Z,86.76
2022-10-06T14:32:17.379Z,86.07
2022-10-06T14:33:15.952Z,86.39
2022-10-06T14:34:19.132Z,86.87
2022-10-06T14:35:17.011Z,85.51
2022-10-06T14:36:20.269Z,85.26
2022-10-06T14:37:17.714Z,84.88
2022-10-06T14:38:19.172Z,84.96
2022-10-06T14:39:19.382Z,85.46
2022-10-06T14:40:19.190Z,84.65
2022-10-06T14:41:21.175Z,85.17
2022-10-06T14:42:20.107Z,84.78
2022-10-06T14:43:20.633Z,84.21
2022-10-06T14:44:21.660Z,84.3
2022-10-06T14:45:22.073Z,84.33
2022-10-06T14:46:23.264Z,83.21
2022-10-06T14:47:23.109Z,83.35
2022-10-06T14:48:23.552Z,82.2
2022-10-06T14:49:24.439Z,81.73
2022-10-06T14:50:25.081Z,81.6
2022-10-06T14:51:26.513Z,80.92
2022-10-06T14:52:25.913Z,80.69
2022-10-06T14:53:26.191Z,77.97
2022-10-06T14:54:27.048Z,78.07
2022-10-06T14:55:28.082Z,77.19
2022-10-06T14:56:29.931Z,73.36
2022-10-06T14:57:27.991Z,72.24
2022-10-06T14:58:28.460Z,71.49
2022-10-06T14:59:29.326Z,70.1
2022-10-06T15:00:29.391Z,70.72
2022-10-06T15:01:30.780Z,70.45
2022-10-06T15:02:30.602Z,71.7
2022-10-06T15:03:31.051Z,70.29
2022-10-06T15:04:31.432Z,69.85
2022-10-06T15:05:31.733Z,69.08
2022-10-06T15:06:32.767Z,69.51
2022-10-06T15:07:32.655Z,69.64
2022-10-06T15:08:33.184Z,69.28
2022-10-06T15:09:33.593Z,69.53
2022-10-06T15:10:34.111Z,69.17
2022-10-06T15:11:34.940Z,69.65
2022-10-06T15:12:35.048Z,69.35
2022-10-06T15:13:35.356Z,69.06
2022-10-06T15:14:35.982Z,69.55
2022-10-06T15:15:36.373Z,69.81
2022-10-06T15:16:37.943Z,70.81
2022-10-06T15:17:37.233Z,70.79
2022-10-06T15:18:41.975Z,70.77
2022-10-06T15:19:40.423Z,70.94
2022-10-06T15:20:40.731Z,70.84
2022-10-06T15:21:42.679Z,71.18
2022-10-06T15:22:41.567Z,71.25
2022-10-06T15:23:42.414Z,70.95
2022-10-06T15:24:42.600Z,71.24
2022-10-06T15:26:43.946Z,72.05
2022-10-06T15:27:43.754Z,71.56
2022-10-06T15:28:44.290Z,71.6
2022-10-06T15:29:44.782Z,71.19
2022-10-06T15:30:45.207Z,72.05
2022-10-06T15:31:48.487Z,72.56
2022-10-06T15:32:46.135Z,71.99
2022-10-06T15:33:49.807Z,72.82
2022-10-06T15:34:51.269Z,73.73
2022-10-06T15:36:51.907Z,72.83
2022-10-06T15:37:51.374Z,72.65
2022-10-06T15:38:52.428Z,72.47
2022-10-06T15:39:52.126Z,72.62
2022-10-06T15:41:02.573Z,72.64
2022-10-06T15:41:56.125Z,72.79
2022-10-06T15:42:56.746Z,73.74
2022-10-06T15:43:57.588Z,73.46
2022-10-06T15:44:57.790Z,74.4
2022-10-06T15:45:57.993Z,72.22
2022-10-06T15:46:58.893Z,71.78
2022-10-06T15:47:59.040Z,71.5
2022-10-06T15:50:00.980Z,70.86
2022-10-06T15:51:01.404Z,71.15
2022-10-06T15:52:03.993Z,71.74
2022-10-06T15:53:02.451Z,72.14
2022-10-06T15:54:02.868Z,72.42
2022-10-06T15:55:03.900Z,72.6
2022-10-06T15:56:03.904Z,72.62
2022-10-06T15:57:06.481Z,72.91
2022-10-06T15:58:04.641Z,73.19
2022-10-06T15:59:06.264Z,72.82
2022-10-06T16:00:07.102Z,72.98
2022-10-06T16:01:06.805Z,73.54
2022-10-06T16:03:09.647Z,73.97
2022-10-06T16:05:12.364Z,72.8
2022-10-06T16:06:12.682Z,72.85
2022-10-06T16:07:16.059Z,73.16
2022-10-06T16:08:13.608Z,73.13
2022-10-06T16:09:14.530Z,72.8
2022-10-06T16:10:14.638Z,73.6
2022-10-06T16:11:15.376Z,73.89
2022-10-06T16:12:18.444Z,74.86
2022-10-06T16:13:16.201Z,73.75
2022-10-06T16:14:16.715Z,74.42
2022-10-06T16:15:16.825Z,73.94
2022-10-06T16:16:17.395Z,74.53
2022-10-06T16:17:18.475Z,74.72
2022-10-06T16:18:18.484Z,74.54
2022-10-06T16:19:19.729Z,74.83
2022-10-06T16:20:18.909Z,74.69
2022-10-06T16:21:20.138Z,75.91
2022-10-06T16:22:20.772Z,75.21
2022-10-06T16:23:22.618Z,74.98
2022-10-06T16:24:22.521Z,74.4
2022-10-06T16:25:21.915Z,73.87
2022-10-06T16:26:22.210Z,75.06
2022-10-06T16:27:22.737Z,74.96
2022-10-06T16:28:23.546Z,75.43
2022-10-06T16:29:24.006Z,75.43
2022-10-06T16:30:24.103Z,74.95
2022-10-06T16:31:25.190Z,74.48
2022-10-06T16:32:24.917Z,74.33
2022-10-06T16:33:25.551Z,75.09
2022-10-06T16:34:25.873Z,74.61
2022-10-06T16:35:26.170Z,75.14
2022-10-06T16:36:26.900Z,75.17
2022-10-06T16:37:27.104Z,75.1
2022-10-06T16:38:27.732Z,74.87
2022-10-06T16:39:28.148Z,75.26
2022-10-06T16:40:28.571Z,74.71
2022-10-06T16:41:29.082Z,74.58
2022-10-06T16:42:29.298Z,74.43
2022-10-06T16:44:30.963Z,74.52
2022-10-06T16:45:31.223Z,74.37
2022-10-06T16:46:33.044Z,74.4
2022-10-06T16:47:32.093Z,75.08
2022-10-06T16:48:34.771Z,75.14
2022-10-06T16:49:33.232Z,75.53
2022-10-06T16:50:33.656Z,75.16
2022-10-06T16:52:37.048Z,75.2
2022-10-06T16:54:41.150Z,75.76
2022-10-06T16:55:42.399Z,75.42
2022-10-06T16:56:44.345Z,76.32
2022-10-06T16:57:42.393Z,76.4
2022-10-06T16:58:45.166Z,76.1
2022-10-06T16:59:46.868Z,76.71
2022-10-06T17:00:45.025Z,77.58
2022-10-06T17:01:46.113Z,79.59
2022-10-06T17:02:45.613Z,82.69
2022-10-06T17:03:46.059Z,85.69
2022-10-06T17:04:47.042Z,87.95
2022-10-06T17:05:46.753Z,89.91
2022-10-06T17:06:55.205Z,90.73
2022-10-06T17:07:47.679Z,89.49
2022-10-06T17:08:48.195Z,89.79
2022-10-06T17:10:15.396Z,90.76
2022-10-06T17:11:56.788Z,91.95
2022-10-06T17:12:55.084Z,91.67
2022-10-06T17:13:57.150Z,92.03
2022-10-06T17:14:55.933Z,92.52
2022-10-06T17:16:58.290Z,93.47
2022-10-06T17:17:57.684Z,92.74
2022-10-06T17:18:58.812Z,92.88
2022-10-06T17:19:58.511Z,92.77